16:59
Airports
History
Links
Donate
Help keep this website running!
PayPal
Bitcoin
This page is community maintained. The information is intended for PC simulator navigation or reference.
Always use approved charts for navigation.
SSCN
Canela
Canela (SSCN)
Canela, Rio Grande do Sul, Brazil (95680)
(C)
Lat/Lng:29° 22' 12.87" S / 50° 49' 55.06" W
-29.370241 / -50.831961
Elevation:2723'ft / 830mMSL
ID / ICAO:SSCN
Runways:1
Longest:06-24
Asphalt 1,271m / 4,171ft
Controlled:Yes
Nearby Weather16:00 GMT 2017-12-14
Nearby weather at SBCO, Canoas located 44.0 nautical miles from SSCN
Altimeter: 29.83
Visibility: 6.2 statute miles
Wind: 12 knots (from 280°)
Temp: 34°c / 93°f
Humidity: 44.0%

METAR: SBCO 141600Z 28012KT CAVOK 34/20 Q1010

(Powered by phpweather)
Runway 06 / 24
Dimensions:1271.4 x 18m 4171' x 59'ft
Surface:Asphalt
Runway 06 [A]Runway 24 [B]
Heading:048°TH 228°TH
Lat:
Lng:
29° 22' 26.4"S
50° 50' 12.69"W
29° 21' 59.33"S
50° 49' 37.43"W
User Notes and Comments
29° 22' 12.87" S / 50° 49' 55.06" W
Distance To
Airport ID:
Nearby Airports
4 Aeroclube 23.0 NM
SSBZ SSW 203°
(C) Campo Dos Bugres 24.5 NM
SBCX WNW 299°
(C) Novo Hamburgo 27.0 NM
SSNH SSW 213°
4 Condominio Menega 29.1 NM
SIFQ NW 320°
(C) Garibaldi 42.7 NM
SSGA W 279°
(C) Canoas 44.0 NM
SBCO ( WX ) SSW 205°
4 Aeroclube de Bento Goncalves 45.1 NM
SSBG WNW 289°
VFR Chart
Flight Planning at SkyVector.com